Time;durP1;ratioP1;P1;durP2;ratioP2;P2;SDS_P1;SDS_P2;PMS_P1;PMS_P2;Temp;Humidity;BMP_temperature;BMP_pressure;BME280_temperature;BME280_humidity;BME280_pressure;Samples;Min_cycle;Max_cycle;Signal;HPM_P1;HPM_P2
2022/03/07 00:00:49;;;;;;;18.70;12.48;;;0.30;99.90;;;;;;5039185;28;20035;-60
2022/03/07 00:03:15;;;;;;;18.55;11.88;;;0.40;99.90;;;;;;5042361;28;20400;-61
2022/03/07 00:05:40;;;;;;;19.52;12.75;;;0.30;99.90;;;;;;5037431;28;20057;-61
2022/03/07 00:08:07;;;;;;;19.02;12.05;;;;;;;;;;5036313;28;20443;-61
2022/03/07 00:10:33;;;;;;;19.58;11.93;;;;;;;;;;5042889;28;20033;-60
2022/03/07 00:13:00;;;;;;;22.67;13.55;;;;;;;;;;5038068;28;20469;-61
2022/03/07 00:15:27;;;;;;;19.83;13.63;;;;;;;;;;5039506;28;20039;-61
2022/03/07 00:17:54;;;;;;;19.48;12.55;;;;;;;;;;5034154;28;20075;-61
2022/03/07 00:20:21;;;;;;;17.58;12.82;;;;;;;;;;5045098;28;20454;-62
2022/03/07 00:22:47;;;;;;;20.98;13.00;;;;;;;;;;5035749;28;20029;-61
2022/03/07 00:25:15;;;;;;;20.35;12.95;;;;;;;;;;5035204;28;20025;-61
2022/03/07 00:27:42;;;;;;;22.65;12.80;;;;;;;;;;5035972;28;20592;-61
2022/03/07 00:30:10;;;;;;;22.25;14.50;;;;;;;;;;5036078;28;20060;-61
2022/03/07 00:32:36;;;;;;;26.33;14.77;;;;;;;;;;5042641;28;20064;-61
2022/03/07 00:35:02;;;;;;;20.83;13.38;;;;;;;;;;5040146;28;20040;-61
2022/03/07 00:37:28;;;;;;;21.48;13.68;;;;;;;;;;5037472;28;20033;-60
2022/03/07 00:39:54;;;;;;;21.10;13.55;;;;;;;;;;5038093;28;20112;-61
2022/03/07 00:42:20;;;;;;;22.42;14.25;;;;;;;;;;5042438;28;20525;-59
2022/03/07 00:44:46;;;;;;;22.13;14.23;;;;;;;;;;5041410;28;20028;-60
2022/03/07 00:47:12;;;;;;;20.52;14.13;;;;;;;;;;5042552;28;20033;-60
2022/03/07 00:49:37;;;;;;;23.05;14.10;;;0.10;99.90;;;;;;5032775;28;20476;-61
2022/03/07 00:52:03;;;;;;;20.65;13.93;;;0.20;99.90;;;;;;5043549;28;20319;-61
2022/03/07 00:54:29;;;;;;;23.13;14.45;;;0.20;99.90;;;;;;5043318;28;20123;-61
2022/03/07 00:56:54;;;;;;;21.00;13.73;;;0.20;99.90;;;;;;5032298;28;20044;-60
2022/03/07 00:59:20;;;;;;;20.95;12.73;;;0.00;99.90;;;;;;5040070;28;20102;-61
2022/03/07 01:01:46;;;;;;;19.85;13.40;;;0.10;99.90;;;;;;5045197;28;20022;-61
2022/03/07 01:04:11;;;;;;;19.20;13.20;;;0.30;99.90;;;;;;5042898;28;20032;-62
2022/03/07 01:06:37;;;;;;;19.95;13.50;;;0.40;99.90;;;;;;5035171;28;20413;-61
2022/03/07 01:09:03;;;;;;;20.15;13.20;;;0.20;99.90;;;;;;5038769;28;20024;-61
2022/03/07 01:11:28;;;;;;;19.60;13.40;;;0.20;99.90;;;;;;5042129;28;20025;-61
2022/03/07 01:13:54;;;;;;;19.73;13.30;;;0.10;99.90;;;;;;5049151;28;20032;-61
2022/03/07 01:16:19;;;;;;;22.45;14.60;;;0.00;99.90;;;;;;5043203;28;20029;-61
2022/03/07 01:18:45;;;;;;;21.45;13.60;;;0.20;99.90;;;;;;5047486;28;20036;-61
2022/03/07 01:21:12;;;;;;;23.15;13.27;;;0.10;99.90;;;;;;5044394;28;20629;-62
2022/03/07 01:23:37;;;;;;;21.80;13.70;;;0.10;99.90;;;;;;5045468;28;20021;-61
2022/03/07 01:26:03;;;;;;;19.95;13.27;;;0.20;99.90;;;;;;5046350;28;20183;-61
2022/03/07 01:28:28;;;;;;;22.25;13.55;;;0.30;99.90;;;;;;5037868;28;20203;-61
2022/03/07 01:30:54;;;;;;;25.23;13.18;;;0.30;99.90;;;;;;5042150;28;20047;-59
2022/03/07 01:33:20;;;;;;;19.85;12.75;;;0.10;99.90;;;;;;5050448;28;20484;-61
2022/03/07 01:35:45;;;;;;;18.98;13.73;;;-0.10;99.90;;;;;;5046577;28;20021;-61
2022/03/07 01:38:11;;;;;;;18.08;13.38;;;0.00;99.90;;;;;;5038069;28;20079;-59
2022/03/07 01:40:37;;;;;;;19.23;12.57;;;-0.30;99.90;;;;;;5040007;28;20140;-61
2022/03/07 01:43:02;;;;;;;20.02;13.73;;;-0.20;99.90;;;;;;5043111;28;20432;-61
2022/03/07 01:45:28;;;;;;;22.42;13.45;;;-0.30;99.90;;;;;;5043087;28;20056;-61
2022/03/07 01:47:54;;;;;;;18.17;13.40;;;-0.10;99.90;;;;;;5041668;28;20063;-60
2022/03/07 01:50:20;;;;;;;20.77;12.68;;;-0.20;99.90;;;;;;5047801;28;20068;-61
2022/03/07 01:52:50;;;;;;;21.52;13.45;;;-0.10;99.90;;;;;;5042233;28;20075;-60
2022/03/07 01:55:16;;;;;;;19.35;13.18;;;-0.10;99.90;;;;;;5042102;28;20036;-62
2022/03/07 01:57:44;;;;;;;19.20;13.50;;;-0.50;99.90;;;;;;5045173;28;20030;-61
2022/03/07 02:00:18;;;;;;;21.33;13.35;;;-0.10;99.90;;;;;;5040724;28;20276;-57
2022/03/07 02:02:44;;;;;;;20.83;12.77;;;-0.10;99.90;;;;;;5039632;28;20028;-60
2022/03/07 02:05:11;;;;;;;20.48;13.57;;;-0.40;99.90;;;;;;5038459;28;20057;-60
2022/03/07 02:07:37;;;;;;;22.75;13.82;;;-0.20;99.90;;;;;;5033716;28;20072;-61
2022/03/07 02:10:05;;;;;;;20.02;14.05;;;-0.40;99.90;;;;;;5036182;28;20041;-60
2022/03/07 02:12:30;;;;;;;19.33;13.75;;;-0.30;99.90;;;;;;5039836;28;20029;-61
2022/03/07 02:14:56;;;;;;;19.90;13.02;;;-0.20;99.90;;;;;;5046969;28;20028;-61
2022/03/07 02:17:22;;;;;;;20.60;13.27;;;-0.20;99.90;;;;;;5040955;28;20103;-60
2022/03/07 02:19:48;;;;;;;18.40;13.18;;;-0.10;99.90;;;;;;5045139;28;20718;-61
2022/03/07 02:22:17;;;;;;;19.25;12.98;;;0.00;99.90;;;;;;5032245;28;20029;-61
2022/03/07 02:24:43;;;;;;;18.83;13.63;;;0.00;99.90;;;;;;5049734;28;20404;-61
2022/03/07 02:27:11;;;;;;;23.20;13.98;;;0.00;99.90;;;;;;5036268;28;20122;-61
2022/03/07 02:29:37;;;;;;;21.13;13.65;;;-0.20;99.90;;;;;;5042764;28;20037;-61
2022/03/07 02:32:05;;;;;;;21.55;14.50;;;0.00;99.90;;;;;;5041636;28;20025;-61
2022/03/07 02:34:31;;;;;;;20.17;14.73;;;0.00;99.90;;;;;;5049292;28;20087;-61
2022/03/07 02:36:57;;;;;;;21.92;15.45;;;;;;;;;;5045908;28;20029;-61
2022/03/07 02:39:23;;;;;;;22.08;15.25;;;-0.60;99.90;;;;;;5036750;28;20028;-61
2022/03/07 02:41:49;;;;;;;21.08;14.50;;;-0.30;99.90;;;;;;5034332;28;20025;-61
2022/03/07 02:44:15;;;;;;;21.60;13.80;;;-0.30;99.90;;;;;;5043793;28;20027;-61
2022/03/07 02:46:41;;;;;;;21.40;13.82;;;-0.10;99.90;;;;;;5036548;28;20021;-60
2022/03/07 02:49:06;;;;;;;24.67;14.60;;;0.20;99.90;;;;;;5040319;28;20086;-60
2022/03/07 02:51:33;;;;;;;20.88;14.15;;;0.20;99.90;;;;;;5041413;28;20351;-61
2022/03/07 02:53:59;;;;;;;20.27;14.45;;;0.30;99.90;;;;;;5041755;28;20017;-61
2022/03/07 02:56:24;;;;;;;21.42;13.98;;;0.10;99.90;;;;;;5050321;28;20033;-61
2022/03/07 02:58:50;;;;;;;21.83;14.25;;;0.30;99.90;;;;;;5040060;28;20082;-61
2022/03/07 03:01:17;;;;;;;20.85;13.88;;;;;;;;;;5049465;28;20024;-61
2022/03/07 03:03:42;;;;;;;20.73;13.95;;;0.10;99.90;;;;;;5043356;28;20025;-61
2022/03/07 03:06:08;;;;;;;21.77;13.77;;;0.40;99.90;;;;;;5043377;28;20485;-61
2022/03/07 03:08:34;;;;;;;19.67;13.48;;;0.50;99.90;;;;;;5039244;28;20033;-61
2022/03/07 03:11:01;;;;;;;18.55;13.30;;;0.40;99.90;;;;;;5037721;28;20468;-61
2022/03/07 03:13:27;;;;;;;22.90;14.00;;;0.30;99.90;;;;;;5039549;28;20025;-59
2022/03/07 03:15:53;;;;;;;18.83;14.13;;;0.20;99.90;;;;;;5047949;28;21364;-61
2022/03/07 03:18:20;;;;;;;20.75;14.93;;;0.60;99.90;;;;;;5039199;28;20415;-61
2022/03/07 03:20:47;;;;;;;24.02;15.13;;;0.50;99.90;;;;;;5038187;28;20539;-61
2022/03/07 03:23:13;;;;;;;23.23;14.70;;;0.40;99.90;;;;;;5040614;28;20063;-60
2022/03/07 03:25:39;;;;;;;21.13;14.18;;;0.10;99.90;;;;;;5043403;28;20497;-60
2022/03/07 03:28:05;;;;;;;20.30;14.15;;;0.50;99.90;;;;;;5042481;28;20146;-60
2022/03/07 03:30:31;;;;;;;18.95;14.20;;;0.50;99.90;;;;;;5036733;28;20082;-60
2022/03/07 03:32:57;;;;;;;21.67;14.52;;;0.50;99.90;;;;;;5038341;28;20037;-61
2022/03/07 03:35:23;;;;;;;20.45;13.68;;;0.50;99.90;;;;;;5037473;28;20669;-61
2022/03/07 03:37:48;;;;;;;22.75;14.57;;;0.50;99.90;;;;;;5041755;28;20264;-61
2022/03/07 03:40:14;;;;;;;18.85;13.52;;;0.50;99.90;;;;;;5042833;28;20104;-60
2022/03/07 03:42:40;;;;;;;22.17;14.55;;;0.40;99.90;;;;;;5032581;28;20033;-59
2022/03/07 03:45:08;;;;;;;19.33;13.02;;;0.60;99.90;;;;;;5039754;28;20057;-61
2022/03/07 03:47:35;;;;;;;20.35;13.07;;;0.50;99.90;;;;;;5041693;28;20407;-60
2022/03/07 03:50:01;;;;;;;20.42;13.93;;;0.60;99.90;;;;;;5039053;28;20032;-61
2022/03/07 03:52:27;;;;;;;18.92;12.68;;;0.50;99.90;;;;;;5043141;28;20038;-61
2022/03/07 03:54:55;;;;;;;19.67;13.20;;;0.50;99.90;;;;;;5037346;28;20640;-61
2022/03/07 03:57:21;;;;;;;22.23;13.63;;;0.40;99.90;;;;;;5040243;28;20029;-61
2022/03/07 03:59:48;;;;;;;20.98;13.23;;;0.50;99.90;;;;;;5037374;28;20018;-61
2022/03/07 04:02:13;;;;;;;19.92;12.85;;;0.40;99.90;;;;;;5042524;28;20029;-60
2022/03/07 04:04:39;;;;;;;21.80;13.38;;;0.60;99.90;;;;;;5034578;28;20029;-60
2022/03/07 04:07:05;;;;;;;19.50;14.23;;;0.60;99.90;;;;;;5042587;28;20127;-60
2022/03/07 04:09:31;;;;;;;20.23;13.23;;;0.70;99.90;;;;;;5037224;28;20087;-60
2022/03/07 04:11:56;;;;;;;22.67;13.75;;;0.70;99.90;;;;;;5033568;28;20017;-60
2022/03/07 04:14:22;;;;;;;24.40;13.52;;;0.70;99.90;;;;;;5037722;28;20128;-60
2022/03/07 04:16:48;;;;;;;20.75;12.52;;;0.60;99.90;;;;;;5036290;28;20024;-60
2022/03/07 04:19:15;;;;;;;20.20;13.63;;;0.50;99.90;;;;;;5033941;28;20021;-60
2022/03/07 04:21:42;;;;;;;19.15;13.20;;;0.70;99.90;;;;;;5036675;28;20048;-60
2022/03/07 04:24:09;;;;;;;19.58;13.30;;;;;;;;;;5046407;28;20036;-60
2022/03/07 04:26:36;;;;;;;22.48;14.38;;;;;;;;;;5036297;28;20037;-60
2022/03/07 04:29:08;;;;;;;17.92;12.73;;;0.70;99.90;;;;;;5042904;28;20047;-60
2022/03/07 04:31:38;;;;;;;17.65;13.02;;;;;;;;;;5037030;28;20013;-59
2022/03/07 04:34:06;;;;;;;21.70;13.65;;;;;;;;;;5037993;28;20379;-60
2022/03/07 04:36:34;;;;;;;19.15;13.80;;;;;;;;;;5039349;28;20087;-58
2022/03/07 04:39:00;;;;;;;18.85;13.15;;;0.60;99.90;;;;;;5042001;28;20024;-57
2022/03/07 04:41:26;;;;;;;20.45;13.13;;;0.50;99.90;;;;;;5047109;28;20078;-61
2022/03/07 04:43:52;;;;;;;22.30;13.50;;;0.70;99.90;;;;;;5051269;28;20068;-61
2022/03/07 04:46:17;;;;;;;19.45;13.68;;;0.70;99.90;;;;;;5043176;28;20025;-60
2022/03/07 04:48:43;;;;;;;23.38;13.95;;;0.70;99.90;;;;;;5044017;28;20036;-60
2022/03/07 04:51:11;;;;;;;25.10;13.68;;;;;;;;;;5037737;28;20051;-61
2022/03/07 04:53:37;;;;;;;23.15;13.57;;;;;;;;;;5049668;28;20039;-61
2022/03/07 04:56:03;;;;;;;21.77;14.30;;;;;;;;;;5047628;28;20408;-61
2022/03/07 04:58:29;;;;;;;20.83;13.40;;;;;;;;;;5038791;28;20025;-61
2022/03/07 05:00:55;;;;;;;23.38;14.10;;;;;;;;;;5040684;28;20035;-60
2022/03/07 05:03:21;;;;;;;19.55;13.75;;;;;;;;;;5046038;28;20021;-61
2022/03/07 05:05:48;;;;;;;18.77;13.43;;;;;;;;;;5047855;28;20471;-60
2022/03/07 05:08:14;;;;;;;25.65;14.25;;;;;;;;;;5040869;28;20067;-61
2022/03/07 05:10:40;;;;;;;20.92;14.60;;;;;;;;;;5036989;28;20104;-61
2022/03/07 05:13:06;;;;;;;24.75;15.88;;;;;;;;;;5044951;28;20021;-61
2022/03/07 05:15:32;;;;;;;29.00;19.30;;;;;;;;;;5039969;28;20036;-60
2022/03/07 05:17:58;;;;;;;32.17;19.55;;;;;;;;;;5042189;28;20025;-59
2022/03/07 05:20:25;;;;;;;25.83;16.90;;;;;;;;;;5035970;28;20041;-61
2022/03/07 05:22:52;;;;;;;22.70;15.13;;;;;;;;;;5039628;28;20068;-61
2022/03/07 05:25:18;;;;;;;24.80;16.90;;;;;;;;;;5046079;28;20385;-60
2022/03/07 05:27:45;;;;;;;24.70;15.77;;;1.60;99.90;;;;;;5037206;28;20665;-60
2022/03/07 05:30:15;;;;;;;21.58;14.02;;;1.70;99.90;;;;;;5045527;28;20476;-60
2022/03/07 05:32:45;;;;;;;21.38;13.85;;;1.60;99.90;;;;;;5041506;28;20504;-60
2022/03/07 05:35:11;;;;;;;21.05;14.05;;;1.60;99.90;;;;;;5041354;28;20052;-61
2022/03/07 05:37:38;;;;;;;21.25;13.43;;;1.40;99.90;;;;;;5042850;28;20034;-59
2022/03/07 05:40:06;;;;;;;21.05;12.40;;;1.20;99.90;;;;;;5048939;28;20034;-60
2022/03/07 05:42:32;;;;;;;20.83;12.75;;;1.50;99.90;;;;;;5039388;28;20030;-61
2022/03/07 05:44:58;;;;;;;23.05;13.07;;;1.50;99.90;;;;;;5038170;28;20029;-61
2022/03/07 05:47:24;;;;;;;17.95;12.10;;;;;;;;;;5043800;28;20109;-61
2022/03/07 05:49:50;;;;;;;17.83;11.93;;;1.90;99.90;;;;;;5042191;28;20060;-60
2022/03/07 05:52:15;;;;;;;16.75;11.45;;;1.90;99.90;;;;;;5041258;28;20044;-61
2022/03/07 05:54:41;;;;;;;17.33;11.73;;;1.60;99.90;;;;;;5036996;28;20041;-60
2022/03/07 05:57:06;;;;;;;19.17;11.88;;;1.80;99.90;;;;;;5045256;28;20026;-60
2022/03/07 05:59:32;;;;;;;18.77;11.68;;;1.70;99.90;;;;;;5046707;28;20111;-61
2022/03/07 06:01:58;;;;;;;17.88;11.85;;;1.20;99.90;;;;;;5039615;28;20033;-60
2022/03/07 06:04:24;;;;;;;18.00;11.52;;;1.30;99.90;;;;;;5043864;28;20464;-61
2022/03/07 06:06:50;;;;;;;19.60;12.25;;;1.20;99.90;;;;;;5040753;28;20029;-60
2022/03/07 06:09:15;;;;;;;18.58;11.65;;;1.40;99.90;;;;;;5038217;28;20463;-61
2022/03/07 06:11:41;;;;;;;18.65;11.70;;;1.40;99.90;;;;;;5034717;28;20028;-60
2022/03/07 06:14:07;;;;;;;18.85;11.68;;;1.40;99.90;;;;;;5039686;28;20104;-61
2022/03/07 06:16:33;;;;;;;15.20;11.30;;;1.60;99.90;;;;;;5044108;28;20674;-58
2022/03/07 06:18:58;;;;;;;20.48;11.88;;;1.60;99.90;;;;;;5042874;28;20096;-59
2022/03/07 06:21:24;;;;;;;18.17;12.65;;;1.70;99.90;;;;;;5042756;28;20341;-60
2022/03/07 06:23:49;;;;;;;17.70;11.63;;;1.60;99.90;;;;;;5043193;28;20391;-61
2022/03/07 06:26:15;;;;;;;20.33;12.02;;;1.70;99.90;;;;;;5034504;28;20032;-61
2022/03/07 06:28:40;;;;;;;18.15;11.85;;;1.70;99.90;;;;;;5040441;28;20048;-61
2022/03/07 06:31:06;;;;;;;17.92;11.75;;;1.90;99.90;;;;;;5040647;28;20033;-61
2022/03/07 06:33:31;;;;;;;19.30;11.95;;;1.80;99.90;;;;;;5035044;28;20037;-61
2022/03/07 06:35:57;;;;;;;18.77;11.88;;;1.60;99.90;;;;;;5040429;28;20056;-61
2022/03/07 06:38:23;;;;;;;16.58;11.35;;;1.40;99.90;;;;;;5036905;28;20398;-60
2022/03/07 06:40:49;;;;;;;17.48;11.65;;;1.40;99.90;;;;;;5041850;28;20025;-61
2022/03/07 06:43:14;;;;;;;20.38;12.13;;;1.60;99.90;;;;;;5041115;28;20465;-62
2022/03/07 06:45:40;;;;;;;16.23;11.35;;;1.90;99.90;;;;;;5037599;28;20052;-61
2022/03/07 06:48:06;;;;;;;20.30;12.35;;;1.80;99.90;;;;;;5037837;28;20070;-61
2022/03/07 06:50:32;;;;;;;18.90;12.52;;;1.70;99.90;;;;;;5033676;28;20044;-61
2022/03/07 06:52:58;;;;;;;18.23;11.40;;;2.00;99.90;;;;;;5048192;28;20036;-60
2022/03/07 06:55:24;;;;;;;20.88;12.07;;;2.00;99.90;;;;;;5043247;28;20036;-61
2022/03/07 06:57:50;;;;;;;17.35;12.20;;;1.70;99.90;;;;;;5046426;28;20429;-61
2022/03/07 07:00:17;;;;;;;20.63;13.10;;;2.10;99.90;;;;;;5045409;28;20029;-61
2022/03/07 07:02:44;;;;;;;18.13;12.35;;;1.80;99.90;;;;;;5044927;28;20025;-61
2022/03/07 07:05:10;;;;;;;23.45;13.60;;;1.70;99.90;;;;;;5037163;28;20060;-61
2022/03/07 07:07:36;;;;;;;22.73;12.65;;;1.70;99.90;;;;;;5047410;28;20060;-59
2022/03/07 07:10:03;;;;;;;24.23;12.20;;;2.00;99.90;;;;;;5034306;28;20029;-61
2022/03/07 07:12:29;;;;;;;23.05;12.55;;;2.30;99.90;;;;;;5033948;28;20053;-61
2022/03/07 07:14:55;;;;;;;18.88;11.52;;;2.10;99.90;;;;;;5044299;28;20098;-61
2022/03/07 07:17:20;;;;;;;16.63;11.15;;;2.10;99.90;;;;;;5050186;28;20396;-59
2022/03/07 07:19:46;;;;;;;20.95;10.88;;;2.20;99.90;;;;;;5044418;28;20025;-59
2022/03/07 07:22:12;;;;;;;17.30;11.35;;;2.10;99.90;;;;;;5038878;28;20030;-61
2022/03/07 07:24:37;;;;;;;17.75;11.57;;;2.10;99.90;;;;;;5038926;28;20021;-61
2022/03/07 07:27:03;;;;;;;16.20;9.55;;;2.30;99.90;;;;;;5043642;28;20034;-60
2022/03/07 07:29:29;;;;;;;17.80;10.43;;;2.30;99.90;;;;;;5034694;28;20108;-62
2022/03/07 07:31:55;;;;;;;14.00;9.43;;;2.30;99.90;;;;;;5037014;28;20062;-61
2022/03/07 07:34:21;;;;;;;15.70;10.80;;;2.40;99.90;;;;;;5031372;28;20040;-62
2022/03/07 07:36:47;;;;;;;13.32;8.75;;;2.50;99.90;;;;;;5039695;28;20300;-59
2022/03/07 07:39:13;;;;;;;12.20;7.95;;;2.60;99.90;;;;;;5036648;28;20029;-61
2022/03/07 07:41:39;;;;;;;10.80;8.00;;;2.70;99.90;;;;;;5036596;28;20022;-62
2022/03/07 07:44:04;;;;;;;10.38;7.28;;;2.70;99.90;;;;;;5043384;28;20083;-61
2022/03/07 07:46:30;;;;;;;11.70;7.65;;;2.70;99.90;;;;;;5036055;28;20094;-62
2022/03/07 07:48:56;;;;;;;10.98;7.10;;;2.90;99.90;;;;;;5041046;28;20025;-62
2022/03/07 07:51:21;;;;;;;24.85;6.70;;;2.90;99.90;;;;;;5040667;28;20037;-61
2022/03/07 07:53:47;;;;;;;17.00;5.97;;;2.90;99.90;;;;;;5040705;28;20028;-61
2022/03/07 07:56:13;;;;;;;12.10;5.75;;;3.00;99.90;;;;;;5026303;28;20091;-59
2022/03/07 07:58:39;;;;;;;9.35;5.38;;;3.00;99.90;;;;;;5044064;28;20068;-59
2022/03/07 08:01:04;;;;;;;7.60;5.50;;;3.10;99.90;;;;;;5036411;28;20097;-61
2022/03/07 08:03:30;;;;;;;7.20;5.40;;;3.10;99.90;;;;;;5041447;28;20033;-61
2022/03/07 08:05:57;;;;;;;14.88;6.20;;;3.10;99.90;;;;;;5040118;28;20032;-61
2022/03/07 08:08:22;;;;;;;11.05;6.13;;;3.10;99.90;;;;;;5034854;28;20082;-62
2022/03/07 08:10:48;;;;;;;13.40;5.57;;;3.10;99.90;;;;;;5040272;28;20025;-61
2022/03/07 08:13:14;;;;;;;16.05;5.45;;;3.20;99.90;;;;;;5033366;28;20036;-60
2022/03/07 08:15:40;;;;;;;8.02;5.18;;;3.20;99.90;;;;;;5039171;28;20040;-59
2022/03/07 08:18:06;;;;;;;8.45;5.10;;;3.30;99.90;;;;;;5036687;28;20045;-61
2022/03/07 08:20:32;;;;;;;9.82;5.10;;;3.20;99.90;;;;;;5032568;28;20029;-60
2022/03/07 08:22:58;;;;;;;7.45;5.07;;;3.40;99.90;;;;;;5033545;28;20653;-62
2022/03/07 08:25:24;;;;;;;7.80;5.15;;;3.50;99.90;;;;;;5032138;28;20048;-62
2022/03/07 08:27:50;;;;;;;11.00;5.30;;;3.50;99.90;;;;;;5030087;28;20366;-62
2022/03/07 08:30:17;;;;;;;8.77;4.60;;;3.60;99.90;;;;;;5035672;28;20040;-61
2022/03/07 08:32:43;;;;;;;6.20;4.18;;;3.60;99.90;;;;;;5028468;28;20033;-62
2022/03/07 08:35:11;;;;;;;6.60;4.82;;;3.60;99.90;;;;;;5039416;28;20037;-63
2022/03/07 08:37:37;;;;;;;8.48;4.85;;;3.60;99.90;;;;;;5037694;28;20102;-62
2022/03/07 08:40:05;;;;;;;6.93;4.57;;;3.70;99.90;;;;;;5030829;28;20247;-62
2022/03/07 08:42:31;;;;;;;7.82;4.60;;;3.70;99.90;;;;;;5028888;28;20098;-61
2022/03/07 08:44:57;;;;;;;7.25;4.50;;;3.70;99.90;;;;;;5032680;28;20037;-62
2022/03/07 08:47:23;;;;;;;6.32;4.63;;;3.70;99.90;;;;;;5032470;28;20037;-61
2022/03/07 08:49:48;;;;;;;5.93;4.18;;;3.80;99.90;;;;;;5034925;28;20429;-62
2022/03/07 08:52:17;;;;;;;6.65;4.53;;;3.80;99.90;;;;;;5033072;28;20697;-62
2022/03/07 08:54:43;;;;;;;5.32;3.85;;;3.80;99.90;;;;;;5041142;28;20040;-63
2022/03/07 08:57:09;;;;;;;8.60;4.63;;;3.80;99.90;;;;;;5033616;28;20384;-62
2022/03/07 08:59:34;;;;;;;6.75;4.35;;;3.80;99.90;;;;;;5038230;28;20029;-62
2022/03/07 09:02:00;;;;;;;5.60;4.05;;;3.80;99.90;;;;;;5040713;28;20158;-62
2022/03/07 09:04:26;;;;;;;10.75;4.50;;;3.90;99.90;;;;;;5043141;28;20432;-62
2022/03/07 09:06:52;;;;;;;7.00;4.25;;;4.00;99.90;;;;;;5031570;28;20513;-62
2022/03/07 09:09:18;;;;;;;6.28;4.40;;;4.00;99.90;;;;;;5032712;28;20047;-62
2022/03/07 09:11:44;;;;;;;7.13;4.68;;;4.10;99.90;;;;;;5038611;28;20747;-63
2022/03/07 09:14:09;;;;;;;5.82;4.22;;;4.10;99.90;;;;;;5037658;28;20108;-62
2022/03/07 09:16:35;;;;;;;11.05;4.60;;;4.10;99.90;;;;;;5037183;28;20025;-62
2022/03/07 09:19:01;;;;;;;18.17;5.85;;;4.10;99.90;;;;;;5029688;28;20047;-62
2022/03/07 09:21:27;;;;;;;8.73;4.18;;;4.20;99.90;;;;;;5031223;28;20148;-61
2022/03/07 09:23:52;;;;;;;5.20;3.50;;;4.20;99.90;;;;;;5034036;28;20025;-62
2022/03/07 09:26:18;;;;;;;8.98;4.03;;;4.10;99.90;;;;;;5033170;28;20600;-62
2022/03/07 09:28:43;;;;;;;9.43;3.85;;;4.20;99.90;;;;;;5038228;28;20037;-61
2022/03/07 09:31:10;;;;;;;5.55;3.80;;;4.30;99.90;;;;;;5041737;28;20282;-63
2022/03/07 09:33:35;;;;;;;10.05;4.53;;;4.30;99.90;;;;;;5040220;28;20397;-61
2022/03/07 09:36:02;;;;;;;9.18;4.30;;;4.30;99.90;;;;;;5030557;28;20025;-62
2022/03/07 09:38:28;;;;;;;5.43;3.90;;;4.30;99.90;;;;;;5040307;28;20466;-62
2022/03/07 09:40:55;;;;;;;7.85;4.35;;;4.30;99.90;;;;;;5035446;28;20033;-63
2022/03/07 09:43:22;;;;;;;5.70;3.95;;;4.30;99.90;;;;;;5038258;28;20025;-62
2022/03/07 09:45:49;;;;;;;7.57;3.75;;;4.30;99.90;;;;;;5037068;28;20021;-63
2022/03/07 09:48:15;;;;;;;6.45;4.68;;;4.30;99.90;;;;;;5040157;28;20477;-61
2022/03/07 09:50:42;;;;;;;6.78;4.13;;;4.30;99.90;;;;;;5038561;28;20056;-61
2022/03/07 09:53:09;;;;;;;6.57;4.65;;;4.30;99.90;;;;;;5040211;28;20033;-59
2022/03/07 09:55:36;;;;;;;5.28;3.88;;;4.40;99.90;;;;;;5045229;28;20062;-60
2022/03/07 09:58:02;;;;;;;7.35;3.80;;;4.40;99.90;;;;;;5035704;28;20555;-62
2022/03/07 10:00:28;;;;;;;5.65;4.47;;;4.50;99.90;;;;;;5043913;28;20575;-63
2022/03/07 10:03:05;;;;;;;6.72;4.90;;;4.50;99.90;;;;;;5039360;28;20028;-62
2022/03/07 10:05:38;;;;;;;5.95;4.60;;;4.60;99.90;;;;;;5042968;28;20303;-62
2022/03/07 10:08:08;;;;;;;5.80;4.53;;;4.60;99.90;;;;;;5045274;28;20512;-61
2022/03/07 10:10:40;;;;;;;5.82;4.20;;;4.60;99.90;;;;;;5041381;28;20459;-62
2022/03/07 10:13:14;;;;;;;5.07;4.57;;;4.60;99.90;;;;;;5042258;28;20118;-61
2022/03/07 10:15:41;;;;;;;6.07;4.30;;;4.60;99.90;;;;;;5040074;28;20025;-61
2022/03/07 10:18:17;;;;;;;6.50;4.43;;;4.80;99.90;;;;;;5038537;28;20033;-62
2022/03/07 10:20:50;;;;;;;7.03;4.53;;;4.60;99.90;;;;;;5041566;28;20460;-63
2022/03/07 10:23:17;;;;;;;6.15;3.72;;;4.80;99.90;;;;;;5036172;28;20075;-63
2022/03/07 10:25:44;;;;;;;7.63;4.40;;;4.90;99.90;;;;;;5041640;28;20032;-63
2022/03/07 10:28:10;;;;;;;6.10;4.13;;;5.00;99.90;;;;;;5039743;28;20025;-63
2022/03/07 10:30:38;;;;;;;4.07;3.60;;;4.70;99.90;;;;;;5039124;28;20401;-62
2022/03/07 10:33:09;;;;;;;6.35;3.80;;;5.00;99.90;;;;;;5038789;28;20601;-62
2022/03/07 10:35:44;;;;;;;6.18;4.40;;;4.90;99.90;;;;;;5034954;28;20040;-63
2022/03/07 10:38:20;;;;;;;5.88;3.85;;;5.00;99.90;;;;;;5036564;28;20275;-63
2022/03/07 10:40:52;;;;;;;5.75;3.60;;;4.90;99.90;;;;;;5033313;28;20025;-63
2022/03/07 10:43:18;;;;;;;5.53;3.92;;;5.10;99.90;;;;;;5040564;28;20053;-61
2022/03/07 10:45:54;;;;;;;5.57;3.72;;;5.10;99.90;;;;;;5034246;28;20021;-62
2022/03/07 10:48:21;;;;;;;5.15;4.20;;;5.10;99.90;;;;;;5028681;28;20439;-63
2022/03/07 10:50:59;;;;;;;4.88;3.65;;;5.20;99.90;;;;;;5037652;28;20032;-63
2022/03/07 10:53:25;;;;;;;5.43;3.63;;;5.30;99.90;;;;;;5031707;28;20026;-62
2022/03/07 10:55:59;;;;;;;6.65;3.97;;;5.30;99.90;;;;;;5030243;28;20025;-62
2022/03/07 10:58:27;;;;;;;6.22;4.03;;;5.40;99.90;;;;;;5031381;28;20029;-62
2022/03/07 11:00:56;;;;;;;7.07;3.72;;;5.40;99.90;;;;;;5037960;28;21397;-62
2022/03/07 11:03:24;;;;;;;4.15;3.58;;;5.40;99.90;;;;;;5041336;28;20043;-62
2022/03/07 11:05:50;;;;;;;5.30;3.50;;;5.30;99.90;;;;;;5040767;28;20021;-63
2022/03/07 11:08:18;;;;;;;4.28;3.40;;;5.40;99.90;;;;;;5027593;28;20575;-63
2022/03/07 11:10:49;;;;;;;5.05;3.40;;;5.40;99.90;;;;;;5033416;28;20033;-62
2022/03/07 11:13:16;;;;;;;5.75;3.83;;;5.40;99.90;;;;;;5028202;28;20450;-60
2022/03/07 11:15:45;;;;;;;6.10;3.70;;;5.40;99.90;;;;;;5037482;28;20029;-63
2022/03/07 11:18:12;;;;;;;6.30;3.33;;;5.40;99.90;;;;;;5043155;28;20048;-62
2022/03/07 11:20:41;;;;;;;6.47;3.80;;;5.50;99.90;;;;;;5037449;28;20029;-61
2022/03/07 11:23:07;;;;;;;5.25;3.60;;;5.50;99.90;;;;;;5047858;28;20063;-63
2022/03/07 11:25:37;;;;;;;5.57;3.95;;;5.50;99.90;;;;;;5033203;28;20078;-61
2022/03/07 11:28:04;;;;;;;5.50;3.67;;;5.50;99.90;;;;;;5040434;28;20362;-62
2022/03/07 11:30:39;;;;;;;5.22;3.75;;;5.60;99.90;;;;;;5039305;28;20017;-62
2022/03/07 11:33:16;;;;;;;6.35;3.70;;;5.60;99.90;;;;;;5033598;28;20430;-62
2022/03/07 11:35:47;;;;;;;5.47;3.35;;;5.60;99.90;;;;;;5039289;28;20025;-63
2022/03/07 11:38:35;;;;;;;4.60;3.17;;;5.60;99.90;;;;;;5036233;28;20250;-63
2022/03/07 11:41:11;;;;;;;6.95;3.50;;;5.60;99.90;;;;;;5038362;28;20017;-62
2022/03/07 11:43:49;;;;;;;4.70;3.40;;;5.70;99.90;;;;;;5034548;28;20338;-63
2022/03/07 11:46:27;;;;;;;5.60;3.38;;;5.80;99.90;;;;;;5036506;28;20025;-62
2022/03/07 11:48:53;;;;;;;5.30;3.80;;;6.00;99.90;;;;;;5032859;28;20139;-61
2022/03/07 11:51:21;;;;;;;4.20;3.45;;;5.80;99.90;;;;;;5039369;28;20132;-62
2022/03/07 11:53:48;;;;;;;4.75;3.25;;;5.90;99.90;;;;;;5040371;28;20027;-60
2022/03/07 11:56:24;;;;;;;4.22;2.75;;;5.90;99.90;;;;;;5042431;28;20033;-62
2022/03/07 11:58:54;;;;;;;7.32;3.50;;;5.90;99.90;;;;;;5029827;28;20098;-61
2022/03/07 12:01:21;;;;;;;4.70;3.50;;;5.90;99.90;;;;;;5048912;28;20024;-60
2022/03/07 12:03:48;;;;;;;4.78;3.40;;;5.90;99.90;;;;;;5037713;28;20138;-63
2022/03/07 12:06:16;;;;;;;5.22;3.05;;;5.90;99.90;;;;;;5044016;28;20036;-62
2022/03/07 12:09:00;;;;;;;10.52;5.20;;;5.90;99.90;;;;;;5036045;28;20045;-61
2022/03/07 12:11:34;;;;;;;4.13;2.63;;;6.00;99.90;;;;;;5040643;28;20476;-61
2022/03/07 12:14:04;;;;;;;5.47;3.10;;;6.10;99.90;;;;;;5037394;28;20081;-62
2022/03/07 12:16:32;;;;;;;4.70;2.88;;;6.10;99.90;;;;;;5037269;28;20055;-61
2022/03/07 12:19:11;;;;;;;3.97;2.95;;;6.10;99.90;;;;;;5038591;28;20368;-61
2022/03/07 12:21:41;;;;;;;4.55;3.00;;;6.20;99.90;;;;;;5041770;28;20150;-61
2022/03/07 12:24:07;;;;;;;5.55;2.83;;;6.20;99.90;;;;;;5041503;28;20025;-61
2022/03/07 12:26:55;;;;;;;4.38;3.10;;;6.20;99.90;;;;;;5034872;28;20029;-61
2022/03/07 12:29:25;;;;;;;5.97;2.80;;;6.20;99.90;;;;;;5038240;28;20455;-61
2022/03/07 12:31:59;;;;;;;6.53;3.10;;;6.20;99.90;;;;;;5033494;28;20117;-62
2022/03/07 12:34:28;;;;;;;9.07;3.25;;;6.20;99.90;;;;;;5039298;28;20374;-62
2022/03/07 12:37:10;;;;;;;5.32;3.20;;;6.30;99.90;;;;;;5040687;28;20028;-62
2022/03/07 12:39:50;;;;;;;4.78;2.83;;;6.30;99.90;;;;;;5044636;28;20025;-60
2022/03/07 12:42:19;;;;;;;4.43;3.00;;;6.50;99.90;;;;;;5037898;28;20032;-62
2022/03/07 12:44:45;;;;;;;6.90;3.20;;;6.50;99.90;;;;;;5043339;28;20096;-62
2022/03/07 12:47:12;;;;;;;3.95;2.80;;;6.60;99.90;;;;;;5041720;28;20539;-62
2022/03/07 12:49:38;;;;;;;4.20;2.90;;;6.60;99.90;;;;;;5035849;28;20157;-62
2022/03/07 12:52:06;;;;;;;4.78;3.40;;;6.50;99.90;;;;;;5038800;28;20066;-62
2022/03/07 12:54:34;;;;;;;6.18;3.03;;;6.60;99.90;;;;;;5040412;28;20087;-62